sensor_id;sensor_type;location;lat;lon;timestamp;P1;durP1;ratioP1;P2;durP2;ratioP2
73107;SDS011;61559;50.476;15.588;2023-06-22T00:00:34;5.10;;;3.10;;
73107;SDS011;61559;50.476;15.588;2023-06-22T00:03:23;4.20;;;2.80;;
73107;SDS011;61559;50.476;15.588;2023-06-22T00:05:52;4.00;;;2.70;;
73107;SDS011;61559;50.476;15.588;2023-06-22T00:08:21;4.90;;;2.80;;
73107;SDS011;61559;50.476;15.588;2023-06-22T00:10:49;6.30;;;3.50;;
73107;SDS011;61559;50.476;15.588;2023-06-22T00:13:17;4.80;;;2.90;;
73107;SDS011;61559;50.476;15.588;2023-06-22T00:15:46;4.50;;;2.70;;
73107;SDS011;61559;50.476;15.588;2023-06-22T00:18:15;5.30;;;3.20;;
73107;SDS011;61559;50.476;15.588;2023-06-22T00:20:43;4.60;;;3.10;;
73107;SDS011;61559;50.476;15.588;2023-06-22T00:23:13;6.30;;;3.40;;
73107;SDS011;61559;50.476;15.588;2023-06-22T00:25:42;5.40;;;3.40;;
73107;SDS011;61559;50.476;15.588;2023-06-22T00:28:11;4.90;;;2.90;;
73107;SDS011;61559;50.476;15.588;2023-06-22T00:30:39;5.10;;;3.50;;
73107;SDS011;61559;50.476;15.588;2023-06-22T00:33:08;4.30;;;2.80;;
73107;SDS011;61559;50.476;15.588;2023-06-22T00:35:36;6.80;;;3.30;;
73107;SDS011;61559;50.476;15.588;2023-06-22T00:38:08;6.60;;;3.40;;
73107;SDS011;61559;50.476;15.588;2023-06-22T00:40:36;6.40;;;3.30;;
73107;SDS011;61559;50.476;15.588;2023-06-22T00:43:06;5.60;;;3.40;;
73107;SDS011;61559;50.476;15.588;2023-06-22T00:45:34;5.10;;;3.50;;
73107;SDS011;61559;50.476;15.588;2023-06-22T00:48:04;3.90;;;3.10;;
73107;SDS011;61559;50.476;15.588;2023-06-22T00:50:33;7.80;;;3.70;;
73107;SDS011;61559;50.476;15.588;2023-06-22T00:53:03;5.00;;;3.30;;
73107;SDS011;61559;50.476;15.588;2023-06-22T00:55:35;6.20;;;3.20;;
73107;SDS011;61559;50.476;15.588;2023-06-22T00:58:06;5.60;;;2.90;;
73107;SDS011;61559;50.476;15.588;2023-06-22T01:00:37;7.00;;;3.30;;
73107;SDS011;61559;50.476;15.588;2023-06-22T01:03:08;4.80;;;3.30;;
73107;SDS011;61559;50.476;15.588;2023-06-22T01:05:38;5.80;;;3.60;;
73107;SDS011;61559;50.476;15.588;2023-06-22T01:08:16;6.30;;;3.60;;
73107;SDS011;61559;50.476;15.588;2023-06-22T01:10:58;6.70;;;2.90;;
73107;SDS011;61559;50.476;15.588;2023-06-22T01:13:37;6.10;;;3.70;;
73107;SDS011;61559;50.476;15.588;2023-06-22T01:16:13;7.60;;;3.30;;
73107;SDS011;61559;50.476;15.588;2023-06-22T01:18:44;6.20;;;3.60;;
73107;SDS011;61559;50.476;15.588;2023-06-22T01:21:18;7.60;;;3.50;;
73107;SDS011;61559;50.476;15.588;2023-06-22T01:26:47;7.20;;;3.20;;
73107;SDS011;61559;50.476;15.588;2023-06-22T01:29:24;7.10;;;3.80;;
73107;SDS011;61559;50.476;15.588;2023-06-22T01:31:54;4.50;;;3.30;;
73107;SDS011;61559;50.476;15.588;2023-06-22T01:34:24;4.90;;;3.40;;
73107;SDS011;61559;50.476;15.588;2023-06-22T01:36:54;5.10;;;3.60;;
73107;SDS011;61559;50.476;15.588;2023-06-22T01:39:23;5.50;;;3.30;;
73107;SDS011;61559;50.476;15.588;2023-06-22T01:41:52;6.60;;;3.10;;
73107;SDS011;61559;50.476;15.588;2023-06-22T01:44:21;4.70;;;2.80;;
73107;SDS011;61559;50.476;15.588;2023-06-22T01:46:51;4.40;;;3.10;;
73107;SDS011;61559;50.476;15.588;2023-06-22T01:49:21;7.00;;;2.90;;
73107;SDS011;61559;50.476;15.588;2023-06-22T01:51:50;8.00;;;3.20;;
73107;SDS011;61559;50.476;15.588;2023-06-22T01:54:18;7.20;;;3.10;;
73107;SDS011;61559;50.476;15.588;2023-06-22T01:56:46;7.40;;;3.50;;
73107;SDS011;61559;50.476;15.588;2023-06-22T01:59:15;5.20;;;3.40;;
73107;SDS011;61559;50.476;15.588;2023-06-22T02:01:52;7.20;;;2.80;;
73107;SDS011;61559;50.476;15.588;2023-06-22T02:04:27;4.60;;;2.90;;
73107;SDS011;61559;50.476;15.588;2023-06-22T02:07:08;5.30;;;3.50;;
73107;SDS011;61559;50.476;15.588;2023-06-22T02:09:40;5.70;;;3.10;;
73107;SDS011;61559;50.476;15.588;2023-06-22T02:12:11;4.10;;;3.10;;
73107;SDS011;61559;50.476;15.588;2023-06-22T02:14:44;5.10;;;3.00;;
73107;SDS011;61559;50.476;15.588;2023-06-22T02:17:13;6.80;;;3.40;;
73107;SDS011;61559;50.476;15.588;2023-06-22T02:19:42;4.40;;;3.10;;
73107;SDS011;61559;50.476;15.588;2023-06-22T02:22:10;5.90;;;3.70;;
73107;SDS011;61559;50.476;15.588;2023-06-22T02:24:39;5.50;;;3.30;;
73107;SDS011;61559;50.476;15.588;2023-06-22T02:27:07;6.10;;;3.20;;
73107;SDS011;61559;50.476;15.588;2023-06-22T02:29:37;5.30;;;3.00;;
73107;SDS011;61559;50.476;15.588;2023-06-22T02:32:06;6.20;;;3.60;;
73107;SDS011;61559;50.476;15.588;2023-06-22T02:34:35;4.80;;;3.30;;
73107;SDS011;61559;50.476;15.588;2023-06-22T02:37:04;5.30;;;3.10;;
73107;SDS011;61559;50.476;15.588;2023-06-22T02:39:32;6.30;;;3.00;;
73107;SDS011;61559;50.476;15.588;2023-06-22T02:42:01;5.00;;;3.10;;
73107;SDS011;61559;50.476;15.588;2023-06-22T02:44:30;4.80;;;3.10;;
73107;SDS011;61559;50.476;15.588;2023-06-22T02:46:59;6.90;;;3.90;;
73107;SDS011;61559;50.476;15.588;2023-06-22T02:49:27;5.20;;;3.10;;
73107;SDS011;61559;50.476;15.588;2023-06-22T02:51:56;5.00;;;3.40;;
73107;SDS011;61559;50.476;15.588;2023-06-22T02:54:25;9.10;;;3.90;;
73107;SDS011;61559;50.476;15.588;2023-06-22T02:56:53;6.80;;;3.60;;
73107;SDS011;61559;50.476;15.588;2023-06-22T02:59:22;5.50;;;3.30;;
73107;SDS011;61559;50.476;15.588;2023-06-22T03:01:50;4.80;;;3.20;;
73107;SDS011;61559;50.476;15.588;2023-06-22T03:04:19;8.80;;;3.60;;
73107;SDS011;61559;50.476;15.588;2023-06-22T03:06:47;7.50;;;3.60;;
73107;SDS011;61559;50.476;15.588;2023-06-22T03:09:18;6.30;;;3.80;;
73107;SDS011;61559;50.476;15.588;2023-06-22T03:11:46;6.30;;;3.40;;
73107;SDS011;61559;50.476;15.588;2023-06-22T03:14:15;5.60;;;3.00;;
73107;SDS011;61559;50.476;15.588;2023-06-22T03:16:43;6.70;;;3.70;;
73107;SDS011;61559;50.476;15.588;2023-06-22T03:19:11;5.90;;;3.80;;
73107;SDS011;61559;50.476;15.588;2023-06-22T03:21:40;4.70;;;3.20;;
73107;SDS011;61559;50.476;15.588;2023-06-22T03:24:09;5.20;;;3.40;;
73107;SDS011;61559;50.476;15.588;2023-06-22T03:26:37;8.60;;;3.60;;
73107;SDS011;61559;50.476;15.588;2023-06-22T03:29:05;6.60;;;3.10;;
73107;SDS011;61559;50.476;15.588;2023-06-22T03:31:34;4.20;;;3.00;;
73107;SDS011;61559;50.476;15.588;2023-06-22T03:34:03;7.10;;;4.00;;
73107;SDS011;61559;50.476;15.588;2023-06-22T03:36:32;4.50;;;3.40;;
73107;SDS011;61559;50.476;15.588;2023-06-22T03:39:01;7.00;;;3.40;;
73107;SDS011;61559;50.476;15.588;2023-06-22T03:41:30;6.20;;;3.40;;
73107;SDS011;61559;50.476;15.588;2023-06-22T03:43:58;3.90;;;3.00;;
73107;SDS011;61559;50.476;15.588;2023-06-22T03:46:26;3.70;;;3.10;;
73107;SDS011;61559;50.476;15.588;2023-06-22T03:48:55;7.60;;;3.50;;
73107;SDS011;61559;50.476;15.588;2023-06-22T03:51:27;5.50;;;3.60;;
73107;SDS011;61559;50.476;15.588;2023-06-22T03:53:56;6.10;;;3.20;;
73107;SDS011;61559;50.476;15.588;2023-06-22T03:56:25;5.60;;;3.40;;
73107;SDS011;61559;50.476;15.588;2023-06-22T03:58:53;4.60;;;3.20;;
73107;SDS011;61559;50.476;15.588;2023-06-22T04:01:21;6.70;;;3.60;;
73107;SDS011;61559;50.476;15.588;2023-06-22T04:03:50;5.70;;;3.30;;
73107;SDS011;61559;50.476;15.588;2023-06-22T04:06:18;6.10;;;3.40;;
73107;SDS011;61559;50.476;15.588;2023-06-22T04:08:47;9.00;;;3.30;;
73107;SDS011;61559;50.476;15.588;2023-06-22T04:11:17;4.60;;;3.40;;
73107;SDS011;61559;50.476;15.588;2023-06-22T04:13:46;6.10;;;3.30;;
73107;SDS011;61559;50.476;15.588;2023-06-22T04:16:15;5.90;;;3.40;;
73107;SDS011;61559;50.476;15.588;2023-06-22T04:18:44;4.90;;;3.40;;
73107;SDS011;61559;50.476;15.588;2023-06-22T04:21:13;6.90;;;3.70;;
73107;SDS011;61559;50.476;15.588;2023-06-22T04:23:41;5.30;;;3.40;;
73107;SDS011;61559;50.476;15.588;2023-06-22T04:26:11;8.00;;;3.60;;
73107;SDS011;61559;50.476;15.588;2023-06-22T04:28:39;5.60;;;3.50;;
73107;SDS011;61559;50.476;15.588;2023-06-22T04:31:08;5.70;;;3.80;;
73107;SDS011;61559;50.476;15.588;2023-06-22T04:33:36;6.50;;;3.40;;
73107;SDS011;61559;50.476;15.588;2023-06-22T04:36:07;4.50;;;3.60;;
73107;SDS011;61559;50.476;15.588;2023-06-22T04:38:35;4.70;;;3.80;;
73107;SDS011;61559;50.476;15.588;2023-06-22T04:41:04;6.50;;;4.00;;
73107;SDS011;61559;50.476;15.588;2023-06-22T04:43:33;7.20;;;3.80;;
73107;SDS011;61559;50.476;15.588;2023-06-22T04:46:03;5.30;;;3.50;;
73107;SDS011;61559;50.476;15.588;2023-06-22T04:48:31;6.20;;;4.00;;
73107;SDS011;61559;50.476;15.588;2023-06-22T04:51:00;7.50;;;4.00;;
73107;SDS011;61559;50.476;15.588;2023-06-22T04:53:31;5.80;;;3.90;;
73107;SDS011;61559;50.476;15.588;2023-06-22T04:55:59;5.70;;;3.80;;
73107;SDS011;61559;50.476;15.588;2023-06-22T04:58:31;8.00;;;3.90;;
73107;SDS011;61559;50.476;15.588;2023-06-22T05:00:59;6.10;;;4.80;;
73107;SDS011;61559;50.476;15.588;2023-06-22T05:03:28;7.10;;;4.80;;
73107;SDS011;61559;50.476;15.588;2023-06-22T05:05:56;6.80;;;4.80;;
73107;SDS011;61559;50.476;15.588;2023-06-22T05:08:25;5.80;;;5.10;;
73107;SDS011;61559;50.476;15.588;2023-06-22T05:10:55;7.10;;;5.60;;
73107;SDS011;61559;50.476;15.588;2023-06-22T05:13:32;8.10;;;5.60;;
73107;SDS011;61559;50.476;15.588;2023-06-22T05:16:00;6.80;;;6.10;;
73107;SDS011;61559;50.476;15.588;2023-06-22T05:18:30;7.60;;;6.00;;
73107;SDS011;61559;50.476;15.588;2023-06-22T05:20:59;9.10;;;6.40;;
73107;SDS011;61559;50.476;15.588;2023-06-22T05:23:28;6.30;;;5.60;;
73107;SDS011;61559;50.476;15.588;2023-06-22T05:25:57;6.10;;;5.20;;
73107;SDS011;61559;50.476;15.588;2023-06-22T05:28:26;7.40;;;6.20;;
73107;SDS011;61559;50.476;15.588;2023-06-22T05:30:54;13.20;;;5.80;;
73107;SDS011;61559;50.476;15.588;2023-06-22T05:33:23;6.70;;;6.00;;
73107;SDS011;61559;50.476;15.588;2023-06-22T05:35:52;7.60;;;5.80;;
73107;SDS011;61559;50.476;15.588;2023-06-22T05:38:20;9.20;;;6.40;;
73107;SDS011;61559;50.476;15.588;2023-06-22T05:40:49;8.50;;;6.30;;
73107;SDS011;61559;50.476;15.588;2023-06-22T05:43:17;7.90;;;5.90;;
73107;SDS011;61559;50.476;15.588;2023-06-22T05:45:45;7.20;;;6.50;;
73107;SDS011;61559;50.476;15.588;2023-06-22T05:48:14;7.80;;;6.10;;
73107;SDS011;61559;50.476;15.588;2023-06-22T05:50:42;7.60;;;6.30;;
73107;SDS011;61559;50.476;15.588;2023-06-22T05:53:11;8.10;;;6.50;;
73107;SDS011;61559;50.476;15.588;2023-06-22T05:55:39;7.50;;;6.20;;
73107;SDS011;61559;50.476;15.588;2023-06-22T05:58:08;6.90;;;6.10;;
73107;SDS011;61559;50.476;15.588;2023-06-22T06:00:36;7.50;;;6.30;;
73107;SDS011;61559;50.476;15.588;2023-06-22T06:03:05;7.00;;;6.20;;
73107;SDS011;61559;50.476;15.588;2023-06-22T06:05:34;6.70;;;5.60;;
73107;SDS011;61559;50.476;15.588;2023-06-22T06:08:03;8.20;;;6.30;;
73107;SDS011;61559;50.476;15.588;2023-06-22T06:10:33;6.80;;;6.10;;
73107;SDS011;61559;50.476;15.588;2023-06-22T06:13:03;8.10;;;6.50;;
73107;SDS011;61559;50.476;15.588;2023-06-22T06:15:31;7.80;;;5.80;;
73107;SDS011;61559;50.476;15.588;2023-06-22T06:18:01;8.00;;;6.30;;
73107;SDS011;61559;50.476;15.588;2023-06-22T06:20:32;7.50;;;6.30;;
73107;SDS011;61559;50.476;15.588;2023-06-22T06:23:01;8.70;;;6.70;;
73107;SDS011;61559;50.476;15.588;2023-06-22T06:25:30;6.90;;;6.10;;
73107;SDS011;61559;50.476;15.588;2023-06-22T06:27:58;7.30;;;6.50;;
73107;SDS011;61559;50.476;15.588;2023-06-22T06:30:27;7.00;;;5.50;;
73107;SDS011;61559;50.476;15.588;2023-06-22T06:32:56;7.20;;;5.90;;
73107;SDS011;61559;50.476;15.588;2023-06-22T06:35:25;8.80;;;6.60;;
73107;SDS011;61559;50.476;15.588;2023-06-22T06:37:53;7.00;;;6.30;;
73107;SDS011;61559;50.476;15.588;2023-06-22T06:40:22;8.80;;;6.90;;
73107;SDS011;61559;50.476;15.588;2023-06-22T06:42:50;10.50;;;6.60;;
73107;SDS011;61559;50.476;15.588;2023-06-22T06:45:19;8.40;;;6.20;;
73107;SDS011;61559;50.476;15.588;2023-06-22T06:47:49;7.40;;;5.60;;
73107;SDS011;61559;50.476;15.588;2023-06-22T06:50:19;7.50;;;5.80;;
73107;SDS011;61559;50.476;15.588;2023-06-22T06:52:48;8.70;;;6.60;;
73107;SDS011;61559;50.476;15.588;2023-06-22T06:55:17;6.70;;;6.00;;
73107;SDS011;61559;50.476;15.588;2023-06-22T06:57:46;6.60;;;5.70;;
73107;SDS011;61559;50.476;15.588;2023-06-22T07:00:15;7.40;;;6.20;;
73107;SDS011;61559;50.476;15.588;2023-06-22T07:02:49;6.70;;;6.00;;
73107;SDS011;61559;50.476;15.588;2023-06-22T07:05:17;7.50;;;6.00;;
73107;SDS011;61559;50.476;15.588;2023-06-22T07:07:46;7.00;;;5.60;;
73107;SDS011;61559;50.476;15.588;2023-06-22T07:10:14;6.50;;;5.70;;
73107;SDS011;61559;50.476;15.588;2023-06-22T07:12:43;6.90;;;5.60;;
73107;SDS011;61559;50.476;15.588;2023-06-22T07:15:11;6.90;;;5.20;;
73107;SDS011;61559;50.476;15.588;2023-06-22T07:17:40;6.90;;;5.50;;
73107;SDS011;61559;50.476;15.588;2023-06-22T07:20:10;6.40;;;5.50;;
73107;SDS011;61559;50.476;15.588;2023-06-22T07:22:40;9.20;;;5.90;;
73107;SDS011;61559;50.476;15.588;2023-06-22T07:25:10;7.70;;;5.40;;
73107;SDS011;61559;50.476;15.588;2023-06-22T07:27:44;10.20;;;5.70;;
73107;SDS011;61559;50.476;15.588;2023-06-22T07:30:13;6.00;;;4.90;;
73107;SDS011;61559;50.476;15.588;2023-06-22T07:32:42;6.50;;;5.10;;
73107;SDS011;61559;50.476;15.588;2023-06-22T07:35:10;5.60;;;5.00;;
73107;SDS011;61559;50.476;15.588;2023-06-22T07:37:39;5.80;;;4.90;;
73107;SDS011;61559;50.476;15.588;2023-06-22T07:40:08;9.00;;;5.80;;
73107;SDS011;61559;50.476;15.588;2023-06-22T07:42:38;7.20;;;5.50;;
73107;SDS011;61559;50.476;15.588;2023-06-22T07:45:07;5.80;;;4.70;;
73107;SDS011;61559;50.476;15.588;2023-06-22T07:50:04;7.00;;;5.50;;
73107;SDS011;61559;50.476;15.588;2023-06-22T07:52:33;6.80;;;5.30;;
73107;SDS011;61559;50.476;15.588;2023-06-22T07:55:03;7.30;;;5.50;;
73107;SDS011;61559;50.476;15.588;2023-06-22T07:57:32;5.60;;;4.70;;
73107;SDS011;61559;50.476;15.588;2023-06-22T08:00:00;6.40;;;5.20;;
73107;SDS011;61559;50.476;15.588;2023-06-22T08:02:38;6.70;;;5.20;;
73107;SDS011;61559;50.476;15.588;2023-06-22T08:05:08;6.10;;;5.20;;
73107;SDS011;61559;50.476;15.588;2023-06-22T08:07:48;5.80;;;5.20;;
73107;SDS011;61559;50.476;15.588;2023-06-22T08:10:17;5.80;;;5.00;;
73107;SDS011;61559;50.476;15.588;2023-06-22T08:12:46;7.70;;;5.30;;
73107;SDS011;61559;50.476;15.588;2023-06-22T08:15:14;8.60;;;5.40;;
73107;SDS011;61559;50.476;15.588;2023-06-22T08:17:43;8.50;;;5.50;;
73107;SDS011;61559;50.476;15.588;2023-06-22T08:20:12;6.40;;;5.60;;
73107;SDS011;61559;50.476;15.588;2023-06-22T08:22:41;7.40;;;6.00;;
73107;SDS011;61559;50.476;15.588;2023-06-22T08:25:11;5.90;;;5.30;;
73107;SDS011;61559;50.476;15.588;2023-06-22T08:27:40;5.90;;;5.00;;
73107;SDS011;61559;50.476;15.588;2023-06-22T08:30:12;6.80;;;5.70;;
73107;SDS011;61559;50.476;15.588;2023-06-22T08:32:40;8.00;;;5.90;;
73107;SDS011;61559;50.476;15.588;2023-06-22T08:35:09;7.20;;;5.90;;
73107;SDS011;61559;50.476;15.588;2023-06-22T08:37:37;6.00;;;5.40;;
73107;SDS011;61559;50.476;15.588;2023-06-22T08:40:07;5.80;;;5.20;;
73107;SDS011;61559;50.476;15.588;2023-06-22T08:42:37;6.80;;;6.00;;
73107;SDS011;61559;50.476;15.588;2023-06-22T08:45:08;6.60;;;5.90;;
73107;SDS011;61559;50.476;15.588;2023-06-22T08:47:37;6.40;;;5.80;;
73107;SDS011;61559;50.476;15.588;2023-06-22T08:50:07;8.30;;;5.60;;
73107;SDS011;61559;50.476;15.588;2023-06-22T08:52:36;7.40;;;5.50;;
73107;SDS011;61559;50.476;15.588;2023-06-22T08:55:08;7.30;;;6.60;;
73107;SDS011;61559;50.476;15.588;2023-06-22T08:57:37;6.50;;;5.70;;
73107;SDS011;61559;50.476;15.588;2023-06-22T09:00:07;6.50;;;5.70;;
73107;SDS011;61559;50.476;15.588;2023-06-22T09:02:43;8.20;;;5.60;;
73107;SDS011;61559;50.476;15.588;2023-06-22T09:05:12;6.90;;;5.30;;
73107;SDS011;61559;50.476;15.588;2023-06-22T09:07:41;6.30;;;5.00;;
73107;SDS011;61559;50.476;15.588;2023-06-22T09:10:10;6.30;;;5.60;;
73107;SDS011;61559;50.476;15.588;2023-06-22T09:12:39;6.70;;;5.90;;
73107;SDS011;61559;50.476;15.588;2023-06-22T09:15:08;5.50;;;4.90;;
73107;SDS011;61559;50.476;15.588;2023-06-22T09:17:42;5.80;;;5.20;;
73107;SDS011;61559;50.476;15.588;2023-06-22T09:20:11;6.30;;;5.40;;
73107;SDS011;61559;50.476;15.588;2023-06-22T09:22:39;5.90;;;5.30;;
73107;SDS011;61559;50.476;15.588;2023-06-22T09:25:08;6.60;;;5.60;;
73107;SDS011;61559;50.476;15.588;2023-06-22T09:27:37;6.50;;;4.80;;
73107;SDS011;61559;50.476;15.588;2023-06-22T09:30:07;6.60;;;5.20;;
73107;SDS011;61559;50.476;15.588;2023-06-22T09:32:36;5.60;;;5.00;;
73107;SDS011;61559;50.476;15.588;2023-06-22T09:35:06;6.50;;;4.70;;
73107;SDS011;61559;50.476;15.588;2023-06-22T09:37:37;6.60;;;5.00;;
73107;SDS011;61559;50.476;15.588;2023-06-22T09:40:07;7.00;;;5.00;;
73107;SDS011;61559;50.476;15.588;2023-06-22T09:42:38;5.60;;;4.70;;
73107;SDS011;61559;50.476;15.588;2023-06-22T09:45:07;5.70;;;5.10;;
73107;SDS011;61559;50.476;15.588;2023-06-22T09:47:36;5.50;;;4.90;;
73107;SDS011;61559;50.476;15.588;2023-06-22T09:50:06;6.20;;;5.10;;
73107;SDS011;61559;50.476;15.588;2023-06-22T09:52:35;5.80;;;5.00;;
73107;SDS011;61559;50.476;15.588;2023-06-22T09:55:07;6.50;;;4.90;;
73107;SDS011;61559;50.476;15.588;2023-06-22T09:57:35;6.30;;;4.60;;
73107;SDS011;61559;50.476;15.588;2023-06-22T10:00:05;5.40;;;4.80;;
73107;SDS011;61559;50.476;15.588;2023-06-22T10:02:37;6.30;;;4.80;;
73107;SDS011;61559;50.476;15.588;2023-06-22T10:05:06;6.50;;;4.90;;
73107;SDS011;61559;50.476;15.588;2023-06-22T10:07:35;5.60;;;5.10;;
73107;SDS011;61559;50.476;15.588;2023-06-22T10:10:07;6.60;;;5.10;;
73107;SDS011;61559;50.476;15.588;2023-06-22T10:12:36;5.80;;;5.20;;
73107;SDS011;61559;50.476;15.588;2023-06-22T10:15:08;5.80;;;4.70;;
73107;SDS011;61559;50.476;15.588;2023-06-22T10:17:38;9.00;;;5.60;;
73107;SDS011;61559;50.476;15.588;2023-06-22T10:20:08;4.90;;;4.40;;
73107;SDS011;61559;50.476;15.588;2023-06-22T10:22:40;5.30;;;4.80;;
73107;SDS011;61559;50.476;15.588;2023-06-22T10:25:10;6.50;;;5.20;;
73107;SDS011;61559;50.476;15.588;2023-06-22T10:27:40;8.20;;;5.30;;
73107;SDS011;61559;50.476;15.588;2023-06-22T10:30:10;6.10;;;5.00;;
73107;SDS011;61559;50.476;15.588;2023-06-22T10:32:40;6.30;;;5.40;;
73107;SDS011;61559;50.476;15.588;2023-06-22T10:35:10;7.00;;;5.10;;
73107;SDS011;61559;50.476;15.588;2023-06-22T10:37:40;7.20;;;5.40;;
73107;SDS011;61559;50.476;15.588;2023-06-22T10:40:11;5.30;;;4.60;;
73107;SDS011;61559;50.476;15.588;2023-06-22T10:42:40;5.00;;;4.50;;
73107;SDS011;61559;50.476;15.588;2023-06-22T10:45:09;6.60;;;5.40;;
73107;SDS011;61559;50.476;15.588;2023-06-22T10:47:38;5.60;;;5.00;;
73107;SDS011;61559;50.476;15.588;2023-06-22T10:50:09;6.10;;;5.00;;
73107;SDS011;61559;50.476;15.588;2023-06-22T10:52:38;5.70;;;4.90;;
73107;SDS011;61559;50.476;15.588;2023-06-22T10:55:08;7.50;;;5.00;;
73107;SDS011;61559;50.476;15.588;2023-06-22T10:57:38;6.30;;;5.30;;
73107;SDS011;61559;50.476;15.588;2023-06-22T11:00:10;6.10;;;5.30;;
73107;SDS011;61559;50.476;15.588;2023-06-22T11:02:42;6.00;;;5.20;;
73107;SDS011;61559;50.476;15.588;2023-06-22T11:05:11;5.10;;;4.50;;
73107;SDS011;61559;50.476;15.588;2023-06-22T11:07:41;5.80;;;4.50;;
73107;SDS011;61559;50.476;15.588;2023-06-22T11:10:15;6.10;;;4.80;;
73107;SDS011;61559;50.476;15.588;2023-06-22T11:12:44;5.50;;;4.80;;
73107;SDS011;61559;50.476;15.588;2023-06-22T11:15:12;6.50;;;4.70;;
73107;SDS011;61559;50.476;15.588;2023-06-22T11:17:41;5.10;;;4.60;;
73107;SDS011;61559;50.476;15.588;2023-06-22T11:20:10;5.60;;;5.00;;
73107;SDS011;61559;50.476;15.588;2023-06-22T11:25:08;5.30;;;4.70;;
73107;SDS011;61559;50.476;15.588;2023-06-22T11:27:38;12.90;;;6.30;;
73107;SDS011;61559;50.476;15.588;2023-06-22T11:30:09;6.50;;;4.90;;
73107;SDS011;61559;50.476;15.588;2023-06-22T11:32:38;5.80;;;5.10;;
73107;SDS011;61559;50.476;15.588;2023-06-22T11:35:07;5.50;;;5.00;;
73107;SDS011;61559;50.476;15.588;2023-06-22T11:37:35;5.90;;;4.90;;
73107;SDS011;61559;50.476;15.588;2023-06-22T11:40:05;6.20;;;4.70;;
73107;SDS011;61559;50.476;15.588;2023-06-22T11:42:36;5.30;;;4.50;;
73107;SDS011;61559;50.476;15.588;2023-06-22T11:45:06;6.60;;;4.70;;
73107;SDS011;61559;50.476;15.588;2023-06-22T11:47:35;4.80;;;4.30;;
73107;SDS011;61559;50.476;15.588;2023-06-22T11:50:05;5.20;;;4.30;;
73107;SDS011;61559;50.476;15.588;2023-06-22T11:52:35;5.70;;;4.80;;
73107;SDS011;61559;50.476;15.588;2023-06-22T11:55:04;6.00;;;5.40;;
73107;SDS011;61559;50.476;15.588;2023-06-22T11:57:34;5.50;;;4.90;;
73107;SDS011;61559;50.476;15.588;2023-06-22T12:00:03;4.70;;;4.20;;
73107;SDS011;61559;50.476;15.588;2023-06-22T12:02:43;5.40;;;4.70;;
73107;SDS011;61559;50.476;15.588;2023-06-22T12:05:12;5.60;;;4.30;;
73107;SDS011;61559;50.476;15.588;2023-06-22T12:07:40;6.10;;;5.00;;
73107;SDS011;61559;50.476;15.588;2023-06-22T12:10:09;6.80;;;5.10;;
73107;SDS011;61559;50.476;15.588;2023-06-22T12:12:38;4.60;;;4.20;;
73107;SDS011;61559;50.476;15.588;2023-06-22T12:15:07;5.10;;;4.50;;
73107;SDS011;61559;50.476;15.588;2023-06-22T12:17:36;6.60;;;5.10;;
73107;SDS011;61559;50.476;15.588;2023-06-22T12:20:06;5.70;;;4.90;;
73107;SDS011;61559;50.476;15.588;2023-06-22T12:22:36;8.10;;;5.40;;
73107;SDS011;61559;50.476;15.588;2023-06-22T12:25:05;5.30;;;4.80;;
73107;SDS011;61559;50.476;15.588;2023-06-22T12:30:02;6.50;;;5.00;;
73107;SDS011;61559;50.476;15.588;2023-06-22T12:32:32;7.90;;;5.50;;
73107;SDS011;61559;50.476;15.588;2023-06-22T12:35:00;6.60;;;5.40;;
73107;SDS011;61559;50.476;15.588;2023-06-22T12:37:30;7.60;;;4.80;;
73107;SDS011;61559;50.476;15.588;2023-06-22T12:39:59;7.90;;;4.80;;
73107;SDS011;61559;50.476;15.588;2023-06-22T12:42:28;5.40;;;4.70;;
73107;SDS011;61559;50.476;15.588;2023-06-22T12:44:56;5.70;;;4.80;;
73107;SDS011;61559;50.476;15.588;2023-06-22T12:47:24;5.80;;;5.10;;
73107;SDS011;61559;50.476;15.588;2023-06-22T12:49:53;5.70;;;5.00;;
73107;SDS011;61559;50.476;15.588;2023-06-22T12:52:21;5.40;;;4.90;;
73107;SDS011;61559;50.476;15.588;2023-06-22T12:54:50;5.50;;;4.60;;
73107;SDS011;61559;50.476;15.588;2023-06-22T12:57:22;7.20;;;5.20;;
73107;SDS011;61559;50.476;15.588;2023-06-22T12:59:51;12.30;;;5.20;;
73107;SDS011;61559;50.476;15.588;2023-06-22T13:02:19;6.90;;;5.10;;
73107;SDS011;61559;50.476;15.588;2023-06-22T13:04:48;7.80;;;5.10;;
73107;SDS011;61559;50.476;15.588;2023-06-22T13:07:16;6.90;;;5.80;;
73107;SDS011;61559;50.476;15.588;2023-06-22T13:09:50;6.80;;;5.00;;
73107;SDS011;61559;50.476;15.588;2023-06-22T13:12:20;6.60;;;5.10;;
73107;SDS011;61559;50.476;15.588;2023-06-22T13:14:48;7.10;;;5.00;;
73107;SDS011;61559;50.476;15.588;2023-06-22T13:17:17;6.20;;;5.60;;
73107;SDS011;61559;50.476;15.588;2023-06-22T13:19:46;6.30;;;5.60;;
73107;SDS011;61559;50.476;15.588;2023-06-22T13:24:57;5.90;;;5.10;;
73107;SDS011;61559;50.476;15.588;2023-06-22T13:27:27;5.70;;;5.10;;
73107;SDS011;61559;50.476;15.588;2023-06-22T13:29:55;5.90;;;5.10;;
73107;SDS011;61559;50.476;15.588;2023-06-22T13:32:24;7.90;;;5.00;;
73107;SDS011;61559;50.476;15.588;2023-06-22T13:34:53;8.40;;;5.90;;
73107;SDS011;61559;50.476;15.588;2023-06-22T13:37:22;5.70;;;5.10;;
73107;SDS011;61559;50.476;15.588;2023-06-22T13:39:51;9.00;;;5.30;;
73107;SDS011;61559;50.476;15.588;2023-06-22T13:42:19;7.20;;;5.50;;
73107;SDS011;61559;50.476;15.588;2023-06-22T13:44:48;6.60;;;5.80;;
73107;SDS011;61559;50.476;15.588;2023-06-22T13:47:17;5.80;;;5.30;;
73107;SDS011;61559;50.476;15.588;2023-06-22T13:49:45;7.40;;;5.40;;
73107;SDS011;61559;50.476;15.588;2023-06-22T13:52:14;7.00;;;5.50;;
73107;SDS011;61559;50.476;15.588;2023-06-22T13:54:42;6.30;;;5.70;;
73107;SDS011;61559;50.476;15.588;2023-06-22T13:57:10;7.20;;;5.80;;
73107;SDS011;61559;50.476;15.588;2023-06-22T13:59:39;7.50;;;5.10;;
73107;SDS011;61559;50.476;15.588;2023-06-22T14:02:07;10.10;;;5.80;;
73107;SDS011;61559;50.476;15.588;2023-06-22T14:04:36;6.40;;;5.50;;
73107;SDS011;61559;50.476;15.588;2023-06-22T14:07:05;6.00;;;5.20;;
73107;SDS011;61559;50.476;15.588;2023-06-22T14:09:34;8.60;;;5.40;;
73107;SDS011;61559;50.476;15.588;2023-06-22T14:12:04;6.20;;;5.30;;
73107;SDS011;61559;50.476;15.588;2023-06-22T14:14:34;7.80;;;5.90;;
73107;SDS011;61559;50.476;15.588;2023-06-22T14:17:04;6.60;;;5.60;;
73107;SDS011;61559;50.476;15.588;2023-06-22T14:19:32;6.40;;;5.70;;
73107;SDS011;61559;50.476;15.588;2023-06-22T14:22:01;6.10;;;5.50;;
73107;SDS011;61559;50.476;15.588;2023-06-22T14:24:30;5.60;;;5.10;;
73107;SDS011;61559;50.476;15.588;2023-06-22T14:26:58;6.80;;;5.40;;
73107;SDS011;61559;50.476;15.588;2023-06-22T14:29:29;5.90;;;5.30;;
73107;SDS011;61559;50.476;15.588;2023-06-22T14:31:57;7.90;;;5.70;;
73107;SDS011;61559;50.476;15.588;2023-06-22T14:34:27;6.10;;;5.60;;
73107;SDS011;61559;50.476;15.588;2023-06-22T14:36:55;6.20;;;4.90;;
73107;SDS011;61559;50.476;15.588;2023-06-22T14:39:25;6.30;;;5.40;;
73107;SDS011;61559;50.476;15.588;2023-06-22T14:41:53;6.60;;;5.80;;
73107;SDS011;61559;50.476;15.588;2023-06-22T14:44:22;5.90;;;5.30;;
73107;SDS011;61559;50.476;15.588;2023-06-22T14:46:50;7.00;;;5.80;;
73107;SDS011;61559;50.476;15.588;2023-06-22T14:49:19;7.50;;;5.20;;
73107;SDS011;61559;50.476;15.588;2023-06-22T14:54:16;6.50;;;5.30;;
73107;SDS011;61559;50.476;15.588;2023-06-22T14:56:45;7.20;;;5.90;;
73107;SDS011;61559;50.476;15.588;2023-06-22T14:59:14;6.00;;;5.40;;
73107;SDS011;61559;50.476;15.588;2023-06-22T15:01:42;6.60;;;5.80;;